sensor_id;sensor_type;location;lat;lon;timestamp;pressure;altitude;pressure_sealevel;temperature;humidity
43745;BME280;29359;53.048;8.732;2022-09-02T00:01:36;102182.28;;;15.53;57.40
43745;BME280;29359;53.048;8.732;2022-09-02T00:03:38;102186.13;;;15.42;56.90
43745;BME280;29359;53.048;8.732;2022-09-02T00:05:39;102187.81;;;15.46;57.23
43745;BME280;29359;53.048;8.732;2022-09-02T00:07:41;102182.47;;;15.46;57.27
43745;BME280;29359;53.048;8.732;2022-09-02T00:09:43;102183.41;;;15.45;57.46
43745;BME280;29359;53.048;8.732;2022-09-02T00:11:47;102180.81;;;15.42;57.70
43745;BME280;29359;53.048;8.732;2022-09-02T00:13:49;102178.25;;;15.38;57.74
43745;BME280;29359;53.048;8.732;2022-09-02T00:15:50;102181.91;;;15.34;57.78
43745;BME280;29359;53.048;8.732;2022-09-02T00:17:52;102174.84;;;15.33;57.36
43745;BME280;29359;53.048;8.732;2022-09-02T00:19:54;102180.22;;;15.30;57.43
43745;BME280;29359;53.048;8.732;2022-09-02T00:21:58;102173.22;;;15.28;57.68
43745;BME280;29359;53.048;8.732;2022-09-02T00:24:01;102175.91;;;15.26;57.51
43745;BME280;29359;53.048;8.732;2022-09-02T00:26:03;102175.03;;;15.26;57.42
43745;BME280;29359;53.048;8.732;2022-09-02T00:28:06;102173.38;;;15.22;57.37
43745;BME280;29359;53.048;8.732;2022-09-02T00:30:08;102175.25;;;15.17;57.84
43745;BME280;29359;53.048;8.732;2022-09-02T00:32:09;102177.94;;;15.15;57.89
43745;BME280;29359;53.048;8.732;2022-09-02T00:34:12;102178.88;;;15.14;57.96
43745;BME280;29359;53.048;8.732;2022-09-02T00:36:13;102174.50;;;15.12;57.95
43745;BME280;29359;53.048;8.732;2022-09-02T00:38:15;102171.03;;;15.08;57.90
43745;BME280;29359;53.048;8.732;2022-09-02T00:40:17;102174.63;;;15.07;58.04
43745;BME280;29359;53.048;8.732;2022-09-02T00:42:20;102180.06;;;15.02;58.33
43745;BME280;29359;53.048;8.732;2022-09-02T00:44:23;102175.75;;;14.97;58.36
43745;BME280;29359;53.048;8.732;2022-09-02T00:46:26;102166.94;;;14.95;57.92
43745;BME280;29359;53.048;8.732;2022-09-02T00:48:31;102172.34;;;14.92;58.11
43745;BME280;29359;53.048;8.732;2022-09-02T00:50:34;102165.28;;;14.91;58.03
43745;BME280;29359;53.048;8.732;2022-09-02T00:52:41;102173.34;;;14.88;58.13
43745;BME280;29359;53.048;8.732;2022-09-02T00:54:49;102168.94;;;14.87;58.07
43745;BME280;29359;53.048;8.732;2022-09-02T00:56:53;102169.91;;;14.83;58.38
43745;BME280;29359;53.048;8.732;2022-09-02T00:58:56;102158.44;;;14.81;58.23
43745;BME280;29359;53.048;8.732;2022-09-02T01:00:59;102166.44;;;14.81;58.17
43745;BME280;29359;53.048;8.732;2022-09-02T01:03:08;102161.19;;;14.77;58.11
43745;BME280;29359;53.048;8.732;2022-09-02T01:05:12;102163.88;;;14.76;58.07
43745;BME280;29359;53.048;8.732;2022-09-02T01:07:15;102163.94;;;14.73;58.43
43745;BME280;29359;53.048;8.732;2022-09-02T01:09:16;102165.75;;;14.71;58.22
43745;BME280;29359;53.048;8.732;2022-09-02T01:11:18;102153.41;;;14.68;58.42
43745;BME280;29359;53.048;8.732;2022-09-02T01:13:26;102156.13;;;14.65;58.24
43745;BME280;29359;53.048;8.732;2022-09-02T01:15:28;102156.22;;;14.62;58.49
43745;BME280;29359;53.048;8.732;2022-09-02T01:17:32;102152.69;;;14.62;58.77
43745;BME280;29359;53.048;8.732;2022-09-02T01:19:38;102154.53;;;14.58;58.72
43745;BME280;29359;53.048;8.732;2022-09-02T01:21:45;102150.16;;;14.56;58.77
43745;BME280;29359;53.048;8.732;2022-09-02T01:23:48;102156.44;;;14.53;58.57
43745;BME280;29359;53.048;8.732;2022-09-02T01:25:51;102150.31;;;14.50;58.56
43745;BME280;29359;53.048;8.732;2022-09-02T01:27:58;102152.13;;;14.48;58.94
43745;BME280;29359;53.048;8.732;2022-09-02T01:30:00;102152.22;;;14.44;58.85
43745;BME280;29359;53.048;8.732;2022-09-02T01:32:01;102152.25;;;14.41;59.01
43745;BME280;29359;53.048;8.732;2022-09-02T01:34:03;102145.22;;;14.39;58.96
43745;BME280;29359;53.048;8.732;2022-09-02T01:36:06;102151.53;;;14.35;58.69
43745;BME280;29359;53.048;8.732;2022-09-02T01:38:09;102150.72;;;14.30;59.47
43745;BME280;29359;53.048;8.732;2022-09-02T01:40:13;102149.00;;;14.27;59.42
43745;BME280;29359;53.048;8.732;2022-09-02T01:42:17;102153.53;;;14.24;59.26
43745;BME280;29359;53.048;8.732;2022-09-02T01:44:19;102142.97;;;14.21;59.60
43745;BME280;29359;53.048;8.732;2022-09-02T01:46:21;102137.75;;;14.16;59.55
43745;BME280;29359;53.048;8.732;2022-09-02T01:48:24;102148.47;;;14.11;59.83
43745;BME280;29359;53.048;8.732;2022-09-02T01:50:26;102137.06;;;14.08;59.93
43745;BME280;29359;53.048;8.732;2022-09-02T01:52:28;102135.31;;;14.07;59.47
43745;BME280;29359;53.048;8.732;2022-09-02T01:54:29;102137.13;;;14.05;59.71
43745;BME280;29359;53.048;8.732;2022-09-02T01:56:31;102137.19;;;14.02;59.69
43745;BME280;29359;53.048;8.732;2022-09-02T01:58:32;102131.88;;;14.02;59.27
43745;BME280;29359;53.048;8.732;2022-09-02T02:00:34;102138.13;;;13.99;59.44
43745;BME280;29359;53.048;8.732;2022-09-02T02:02:36;102132.00;;;13.97;59.27
43745;BME280;29359;53.048;8.732;2022-09-02T02:04:38;102135.50;;;13.98;59.68
43745;BME280;29359;53.048;8.732;2022-09-02T02:06:41;102136.44;;;13.95;59.86
43745;BME280;29359;53.048;8.732;2022-09-02T02:08:43;102128.59;;;13.91;59.80
43745;BME280;29359;53.048;8.732;2022-09-02T02:10:45;102124.22;;;13.88;60.26
43745;BME280;29359;53.048;8.732;2022-09-02T02:12:47;102125.16;;;13.84;60.20
43745;BME280;29359;53.048;8.732;2022-09-02T02:14:49;102120.81;;;13.80;59.92
43745;BME280;29359;53.048;8.732;2022-09-02T02:16:51;102129.72;;;13.77;60.23
43745;BME280;29359;53.048;8.732;2022-09-02T02:18:52;102127.19;;;13.73;60.22
43745;BME280;29359;53.048;8.732;2022-09-02T02:20:54;102131.63;;;13.71;60.40
43745;BME280;29359;53.048;8.732;2022-09-02T02:22:56;102127.28;;;13.68;60.21
43745;BME280;29359;53.048;8.732;2022-09-02T02:24:57;102123.78;;;13.66;60.20
43745;BME280;29359;53.048;8.732;2022-09-02T02:26:59;102128.22;;;13.66;59.72
43745;BME280;29359;53.048;8.732;2022-09-02T02:29:00;102121.19;;;13.63;60.02
43745;BME280;29359;53.048;8.732;2022-09-02T02:31:02;102123.81;;;13.65;60.34
43745;BME280;29359;53.048;8.732;2022-09-02T02:33:04;102121.22;;;13.62;60.13
43745;BME280;29359;53.048;8.732;2022-09-02T02:35:06;102122.13;;;13.61;60.15
43745;BME280;29359;53.048;8.732;2022-09-02T02:37:08;102120.44;;;13.57;60.27
43745;BME280;29359;53.048;8.732;2022-09-02T02:39:12;102112.53;;;13.54;60.12
43745;BME280;29359;53.048;8.732;2022-09-02T02:41:14;102115.19;;;13.54;60.19
43745;BME280;29359;53.048;8.732;2022-09-02T02:43:16;102111.66;;;13.53;60.07
43745;BME280;29359;53.048;8.732;2022-09-02T02:45:18;102109.91;;;13.52;60.28
43745;BME280;29359;53.048;8.732;2022-09-02T02:47:19;102109.09;;;13.48;60.55
43745;BME280;29359;53.048;8.732;2022-09-02T02:49:21;102102.97;;;13.43;60.48
43745;BME280;29359;53.048;8.732;2022-09-02T02:51:23;102107.44;;;13.41;60.51
43745;BME280;29359;53.048;8.732;2022-09-02T02:53:25;102098.69;;;13.38;60.78
43745;BME280;29359;53.048;8.732;2022-09-02T02:55:30;102098.78;;;13.33;61.27
43745;BME280;29359;53.048;8.732;2022-09-02T02:57:33;102094.38;;;13.32;61.20
43745;BME280;29359;53.048;8.732;2022-09-02T02:59:35;102091.78;;;13.29;60.57
43745;BME280;29359;53.048;8.732;2022-09-02T03:01:37;102096.22;;;13.29;60.58
43745;BME280;29359;53.048;8.732;2022-09-02T03:03:39;102093.59;;;13.27;60.90
43745;BME280;29359;53.048;8.732;2022-09-02T03:05:45;102090.97;;;13.26;61.14
43745;BME280;29359;53.048;8.732;2022-09-02T03:07:47;102090.97;;;13.26;60.64
43745;BME280;29359;53.048;8.732;2022-09-02T03:09:49;102088.34;;;13.24;60.77
43745;BME280;29359;53.048;8.732;2022-09-02T03:11:50;102089.28;;;13.22;60.75
43745;BME280;29359;53.048;8.732;2022-09-02T03:13:52;102093.69;;;13.23;60.63
43745;BME280;29359;53.048;8.732;2022-09-02T03:15:54;102099.00;;;13.21;60.68
43745;BME280;29359;53.048;8.732;2022-09-02T03:17:56;102091.06;;;13.21;60.88
43745;BME280;29359;53.048;8.732;2022-09-02T03:19:58;102088.41;;;13.21;59.94
43745;BME280;29359;53.048;8.732;2022-09-02T03:22:00;102086.66;;;13.20;60.00
43745;BME280;29359;53.048;8.732;2022-09-02T03:24:01;102091.97;;;13.20;60.06
43745;BME280;29359;53.048;8.732;2022-09-02T03:26:08;102091.94;;;13.22;60.32
43745;BME280;29359;53.048;8.732;2022-09-02T03:28:11;102084.91;;;13.19;60.19
43745;BME280;29359;53.048;8.732;2022-09-02T03:30:20;102085.81;;;13.18;60.37
43745;BME280;29359;53.048;8.732;2022-09-02T03:32:22;102089.41;;;13.12;60.98
43745;BME280;29359;53.048;8.732;2022-09-02T03:34:26;102082.44;;;13.08;61.51
43745;BME280;29359;53.048;8.732;2022-09-02T03:36:32;102085.13;;;13.07;61.47
43745;BME280;29359;53.048;8.732;2022-09-02T03:38:35;102086.91;;;13.05;61.34
43745;BME280;29359;53.048;8.732;2022-09-02T03:40:37;102091.34;;;13.04;61.05
43745;BME280;29359;53.048;8.732;2022-09-02T03:42:39;102089.63;;;13.02;61.52
43745;BME280;29359;53.048;8.732;2022-09-02T03:44:43;102088.75;;;13.01;61.38
43745;BME280;29359;53.048;8.732;2022-09-02T03:46:45;102086.97;;;13.00;60.92
43745;BME280;29359;53.048;8.732;2022-09-02T03:48:47;102083.44;;;13.01;60.70
43745;BME280;29359;53.048;8.732;2022-09-02T03:50:52;102086.97;;;13.02;59.95
43745;BME280;29359;53.048;8.732;2022-09-02T03:52:53;102082.53;;;13.02;60.09
43745;BME280;29359;53.048;8.732;2022-09-02T03:54:55;102086.09;;;13.01;60.17
43745;BME280;29359;53.048;8.732;2022-09-02T03:56:56;102086.09;;;13.00;60.21
43745;BME280;29359;53.048;8.732;2022-09-02T03:58:59;102081.69;;;12.99;60.33
43745;BME280;29359;53.048;8.732;2022-09-02T04:01:01;102077.28;;;12.99;60.13
43745;BME280;29359;53.048;8.732;2022-09-02T04:03:03;102078.16;;;13.00;59.78
43745;BME280;29359;53.048;8.732;2022-09-02T04:05:05;102078.16;;;12.98;60.21
43745;BME280;29359;53.048;8.732;2022-09-02T04:07:16;102073.78;;;12.97;59.65
43745;BME280;29359;53.048;8.732;2022-09-02T04:09:17;102080.84;;;12.97;59.94
43745;BME280;29359;53.048;8.732;2022-09-02T04:11:20;102078.19;;;12.97;60.26
43745;BME280;29359;53.048;8.732;2022-09-02T04:13:23;102080.88;;;12.95;60.12
43745;BME280;29359;53.048;8.732;2022-09-02T04:15:24;102083.56;;;12.94;59.98
43745;BME280;29359;53.048;8.732;2022-09-02T04:17:26;102082.72;;;12.92;59.62
43745;BME280;29359;53.048;8.732;2022-09-02T04:19:28;102081.81;;;12.93;59.64
43745;BME280;29359;53.048;8.732;2022-09-02T04:21:32;102079.16;;;12.93;59.43
43745;BME280;29359;53.048;8.732;2022-09-02T04:23:34;102083.56;;;12.94;59.40
43745;BME280;29359;53.048;8.732;2022-09-02T04:25:41;102084.44;;;12.94;58.96
43745;BME280;29359;53.048;8.732;2022-09-02T04:27:43;102087.06;;;12.96;58.68
43745;BME280;29359;53.048;8.732;2022-09-02T04:29:44;102084.44;;;12.94;59.61
43745;BME280;29359;53.048;8.732;2022-09-02T04:31:46;102088.84;;;12.95;59.12
43745;BME280;29359;53.048;8.732;2022-09-02T04:33:47;102079.13;;;12.94;59.48
43745;BME280;29359;53.048;8.732;2022-09-02T04:35:49;102075.56;;;12.95;59.49
43745;BME280;29359;53.048;8.732;2022-09-02T04:37:52;102080.00;;;12.95;59.22
43745;BME280;29359;53.048;8.732;2022-09-02T04:39:54;102081.72;;;12.97;58.78
43745;BME280;29359;53.048;8.732;2022-09-02T04:41:55;102077.31;;;12.98;58.61
43745;BME280;29359;53.048;8.732;2022-09-02T04:43:58;102077.28;;;12.99;58.93
43745;BME280;29359;53.048;8.732;2022-09-02T04:46:02;102076.41;;;12.99;58.65
43745;BME280;29359;53.048;8.732;2022-09-02T04:48:04;102078.16;;;13.00;58.54
43745;BME280;29359;53.048;8.732;2022-09-02T04:50:05;102066.66;;;12.99;58.92
43745;BME280;29359;53.048;8.732;2022-09-02T04:52:08;102077.31;;;12.98;59.11
43745;BME280;29359;53.048;8.732;2022-09-02T04:54:10;102081.69;;;12.99;58.74
43745;BME280;29359;53.048;8.732;2022-09-02T04:56:15;102077.31;;;12.98;59.37
43745;BME280;29359;53.048;8.732;2022-09-02T04:58:17;102079.94;;;12.98;59.05
43745;BME280;29359;53.048;8.732;2022-09-02T05:00:18;102073.75;;;12.99;58.37
43745;BME280;29359;53.048;8.732;2022-09-02T05:02:20;102076.38;;;13.00;58.81
43745;BME280;29359;53.048;8.732;2022-09-02T05:04:23;102070.19;;;13.01;58.74
43745;BME280;29359;53.048;8.732;2022-09-02T05:06:26;102072.81;;;13.03;58.64
43745;BME280;29359;53.048;8.732;2022-09-02T05:08:28;102073.69;;;13.03;58.43
43745;BME280;29359;53.048;8.732;2022-09-02T05:10:31;102068.34;;;13.05;58.99
43745;BME280;29359;53.048;8.732;2022-09-02T05:12:33;102069.22;;;13.07;58.33
43745;BME280;29359;53.048;8.732;2022-09-02T05:14:35;102067.41;;;13.09;57.96
43745;BME280;29359;53.048;8.732;2022-09-02T05:16:38;102062.94;;;13.11;58.39
43745;BME280;29359;53.048;8.732;2022-09-02T05:18:41;102075.22;;;13.15;58.33
43745;BME280;29359;53.048;8.732;2022-09-02T05:20:42;102060.19;;;13.17;58.55
43745;BME280;29359;53.048;8.732;2022-09-02T05:22:44;102068.09;;;13.20;58.11
43745;BME280;29359;53.048;8.732;2022-09-02T05:24:46;102072.47;;;13.23;58.09
43745;BME280;29359;53.048;8.732;2022-09-02T05:26:48;102067.09;;;13.26;58.24
43745;BME280;29359;53.048;8.732;2022-09-02T05:28:51;102067.03;;;13.29;57.83
43745;BME280;29359;53.048;8.732;2022-09-02T05:30:52;102063.44;;;13.31;58.02
43745;BME280;29359;53.048;8.732;2022-09-02T05:32:54;102071.34;;;13.34;58.58
43745;BME280;29359;53.048;8.732;2022-09-02T05:34:56;102076.56;;;13.39;58.30
43745;BME280;29359;53.048;8.732;2022-09-02T05:36:58;102072.97;;;13.41;58.51
43745;BME280;29359;53.048;8.732;2022-09-02T05:39:00;102078.22;;;13.46;58.32
43745;BME280;29359;53.048;8.732;2022-09-02T05:41:06;102075.47;;;13.50;59.02
43745;BME280;29359;53.048;8.732;2022-09-02T05:43:08;102073.63;;;13.54;58.06
43745;BME280;29359;53.048;8.732;2022-09-02T05:45:09;102071.81;;;13.56;58.11
43745;BME280;29359;53.048;8.732;2022-09-02T05:47:14;102072.56;;;13.61;58.04
43745;BME280;29359;53.048;8.732;2022-09-02T05:49:15;102070.75;;;13.63;58.14
43745;BME280;29359;53.048;8.732;2022-09-02T05:51:22;102068.88;;;13.68;58.35
43745;BME280;29359;53.048;8.732;2022-09-02T05:53:24;102080.31;;;13.72;58.91
43745;BME280;29359;53.048;8.732;2022-09-02T05:55:27;102066.06;;;13.76;58.02
43745;BME280;29359;53.048;8.732;2022-09-02T05:57:28;102076.56;;;13.80;57.93
43745;BME280;29359;53.048;8.732;2022-09-02T05:59:31;102078.25;;;13.84;58.02
43745;BME280;29359;53.048;8.732;2022-09-02T06:01:36;102066.69;;;13.87;58.12
43745;BME280;29359;53.048;8.732;2022-09-02T06:03:37;102071.94;;;13.92;58.53
43745;BME280;29359;53.048;8.732;2022-09-02T06:05:39;102065.59;;;13.97;58.55
43745;BME280;29359;53.048;8.732;2022-09-02T06:07:42;102068.16;;;14.02;57.74
43745;BME280;29359;53.048;8.732;2022-09-02T06:09:44;102068.03;;;14.06;57.88
43745;BME280;29359;53.048;8.732;2022-09-02T06:11:46;102071.50;;;14.10;58.50
43745;BME280;29359;53.048;8.732;2022-09-02T06:13:50;102068.75;;;14.14;58.71
43745;BME280;29359;53.048;8.732;2022-09-02T06:15:53;102071.31;;;14.18;59.09
43745;BME280;29359;53.048;8.732;2022-09-02T06:17:54;102061.47;;;14.23;59.17
43745;BME280;29359;53.048;8.732;2022-09-02T06:19:59;102061.34;;;14.27;58.94
43745;BME280;29359;53.048;8.732;2022-09-02T06:22:02;102060.41;;;14.31;59.05
43745;BME280;29359;53.048;8.732;2022-09-02T06:24:05;102064.66;;;14.38;58.76
43745;BME280;29359;53.048;8.732;2022-09-02T06:26:09;102064.56;;;14.43;59.25
43745;BME280;29359;53.048;8.732;2022-09-02T06:28:12;102064.50;;;14.46;58.89
43745;BME280;29359;53.048;8.732;2022-09-02T06:30:14;102061.75;;;14.49;59.91
43745;BME280;29359;53.048;8.732;2022-09-02T06:32:15;102063.44;;;14.53;58.86
43745;BME280;29359;53.048;8.732;2022-09-02T06:34:20;102070.38;;;14.59;58.47
43745;BME280;29359;53.048;8.732;2022-09-02T06:36:24;102068.50;;;14.62;58.40
43745;BME280;29359;53.048;8.732;2022-09-02T06:38:28;102069.28;;;14.66;58.20
43745;BME280;29359;53.048;8.732;2022-09-02T06:40:30;102062.06;;;14.71;57.81
43745;BME280;29359;53.048;8.732;2022-09-02T06:42:32;102069.97;;;14.74;58.27
43745;BME280;29359;53.048;8.732;2022-09-02T06:44:34;102078.69;;;14.81;58.09
43745;BME280;29359;53.048;8.732;2022-09-02T06:46:38;102073.28;;;14.84;58.53
43745;BME280;29359;53.048;8.732;2022-09-02T06:48:40;102076.69;;;14.89;57.82
43745;BME280;29359;53.048;8.732;2022-09-02T06:50:45;102068.59;;;14.93;58.12
43745;BME280;29359;53.048;8.732;2022-09-02T06:52:46;102072.88;;;14.99;58.74
43745;BME280;29359;53.048;8.732;2022-09-02T06:54:48;102068.31;;;15.04;58.46
43745;BME280;29359;53.048;8.732;2022-09-02T06:56:51;102068.13;;;15.10;58.51
43745;BME280;29359;53.048;8.732;2022-09-02T06:58:54;102060.94;;;15.14;58.22
43745;BME280;29359;53.048;8.732;2022-09-02T07:00:56;102063.50;;;15.18;57.88
43745;BME280;29359;53.048;8.732;2022-09-02T07:02:57;102058.94;;;15.23;57.64
43745;BME280;29359;53.048;8.732;2022-09-02T07:05:28;102061.47;;;15.28;57.39
43745;BME280;29359;53.048;8.732;2022-09-02T07:07:30;102065.72;;;15.33;57.80
43745;BME280;29359;53.048;8.732;2022-09-02T07:09:31;102056.75;;;15.37;57.96
43745;BME280;29359;53.048;8.732;2022-09-02T07:11:34;102063.69;;;15.43;59.06
43745;BME280;29359;53.048;8.732;2022-09-02T07:13:36;102057.34;;;15.47;57.42
43745;BME280;29359;53.048;8.732;2022-09-02T07:15:40;102049.13;;;15.55;59.71
43745;BME280;29359;53.048;8.732;2022-09-02T07:17:41;102050.81;;;15.59;57.79
43745;BME280;29359;53.048;8.732;2022-09-02T07:19:43;102044.53;;;15.63;56.99
43745;BME280;29359;53.048;8.732;2022-09-02T07:21:46;102043.50;;;15.67;57.03
43745;BME280;29359;53.048;8.732;2022-09-02T07:23:48;102041.63;;;15.70;57.17
43745;BME280;29359;53.048;8.732;2022-09-02T07:25:49;102043.31;;;15.73;57.44
43745;BME280;29359;53.048;8.732;2022-09-02T07:27:51;102045.88;;;15.76;57.54
43745;BME280;29359;53.048;8.732;2022-09-02T07:29:53;102047.53;;;15.80;57.77
43745;BME280;29359;53.048;8.732;2022-09-02T07:31:54;102041.16;;;15.86;56.94
43745;BME280;29359;53.048;8.732;2022-09-02T07:33:56;102045.41;;;15.91;56.61
43745;BME280;29359;53.048;8.732;2022-09-02T07:35:59;102044.38;;;15.95;57.13
43745;BME280;29359;53.048;8.732;2022-09-02T07:38:00;102038.88;;;16.01;56.73
43745;BME280;29359;53.048;8.732;2022-09-02T07:40:05;102046.75;;;16.06;57.17
43745;BME280;29359;53.048;8.732;2022-09-02T07:42:08;102044.84;;;16.10;56.94
43745;BME280;29359;53.048;8.732;2022-09-02T07:44:10;102042.09;;;16.13;56.75
43745;BME280;29359;53.048;8.732;2022-09-02T07:46:12;102040.91;;;16.21;58.90
43745;BME280;29359;53.048;8.732;2022-09-02T07:48:13;102037.19;;;16.27;56.48
43745;BME280;29359;53.048;8.732;2022-09-02T07:50:16;102038.72;;;16.34;56.56
43745;BME280;29359;53.048;8.732;2022-09-02T07:52:21;102043.78;;;16.42;56.19
43745;BME280;29359;53.048;8.732;2022-09-02T07:54:24;102043.63;;;16.48;55.92
43745;BME280;29359;53.048;8.732;2022-09-02T07:56:27;102039.06;;;16.51;55.33
43745;BME280;29359;53.048;8.732;2022-09-02T07:58:29;102037.97;;;16.57;57.18
43745;BME280;29359;53.048;8.732;2022-09-02T08:00:32;102044.75;;;16.67;59.22
43745;BME280;29359;53.048;8.732;2022-09-02T08:02:34;102042.03;;;16.69;55.68
43745;BME280;29359;53.048;8.732;2022-09-02T08:04:36;102034.84;;;16.71;56.16
43745;BME280;29359;53.048;8.732;2022-09-02T08:06:37;102042.66;;;16.77;55.80
43745;BME280;29359;53.048;8.732;2022-09-02T08:08:42;102046.13;;;16.79;55.10
43745;BME280;29359;53.048;8.732;2022-09-02T08:10:43;102052.13;;;16.85;55.58
43745;BME280;29359;53.048;8.732;2022-09-02T08:12:47;102048.41;;;16.91;54.93
43745;BME280;29359;53.048;8.732;2022-09-02T08:14:49;102051.78;;;16.96;54.95
43745;BME280;29359;53.048;8.732;2022-09-02T08:16:52;102040.81;;;17.04;56.02
43745;BME280;29359;53.048;8.732;2022-09-02T08:18:55;102042.41;;;17.09;55.32
43745;BME280;29359;53.048;8.732;2022-09-02T08:20:56;102050.22;;;17.14;54.66
43745;BME280;29359;53.048;8.732;2022-09-02T08:22:58;102050.22;;;17.14;54.54
43745;BME280;29359;53.048;8.732;2022-09-02T08:25:13;102041.06;;;17.21;55.85
43745;BME280;29359;53.048;8.732;2022-09-02T08:27:14;102040.63;;;17.33;56.90
43745;BME280;29359;53.048;8.732;2022-09-02T08:29:16;102038.63;;;17.40;54.61
43745;BME280;29359;53.048;8.732;2022-09-02T08:31:17;102041.22;;;17.41;54.42
43745;BME280;29359;53.048;8.732;2022-09-02T08:33:19;102041.06;;;17.46;53.85
43745;BME280;29359;53.048;8.732;2022-09-02T08:35:21;102039.06;;;17.51;53.89
43745;BME280;29359;53.048;8.732;2022-09-02T08:37:22;102038.97;;;17.54;53.78
43745;BME280;29359;53.048;8.732;2022-09-02T08:39:24;102031.59;;;17.61;53.93
43745;BME280;29359;53.048;8.732;2022-09-02T08:41:38;102033.38;;;17.60;54.01
43745;BME280;29359;53.048;8.732;2022-09-02T08:43:44;102022.59;;;17.63;54.25
43745;BME280;29359;53.048;8.732;2022-09-02T08:45:46;102017.84;;;17.71;53.92
43745;BME280;29359;53.048;8.732;2022-09-02T08:48:05;102018.25;;;17.84;55.59
43745;BME280;29359;53.048;8.732;2022-09-02T08:50:13;102027.75;;;17.91;53.67
43745;BME280;29359;53.048;8.732;2022-09-02T08:54:51;102024.41;;;18.08;52.47
43745;BME280;29359;53.048;8.732;2022-09-02T08:56:55;102016.88;;;18.17;54.47
43745;BME280;29359;53.048;8.732;2022-09-02T08:58:58;102025.41;;;18.27;52.86
43745;BME280;29359;53.048;8.732;2022-09-02T09:03:18;102019.22;;;18.47;53.63
43745;BME280;29359;53.048;8.732;2022-09-02T09:05:58;102015.34;;;18.54;51.96
43745;BME280;29359;53.048;8.732;2022-09-02T09:16:12;101995.91;;;18.72;51.27
43745;BME280;29359;53.048;8.732;2022-09-02T09:18:18;101999.97;;;18.81;52.76
43745;BME280;29359;53.048;8.732;2022-09-02T09:20:27;101988.25;;;18.83;51.99
43745;BME280;29359;53.048;8.732;2022-09-02T09:22:34;101991.59;;;18.89;52.23
43745;BME280;29359;53.048;8.732;2022-09-02T09:24:39;101995.81;;;18.94;51.68
43745;BME280;29359;53.048;8.732;2022-09-02T09:26:42;101997.28;;;19.01;51.47
43745;BME280;29359;53.048;8.732;2022-09-02T09:28:46;101989.50;;;19.16;52.65
43745;BME280;29359;53.048;8.732;2022-09-02T09:30:49;101980.41;;;19.20;51.22
43745;BME280;29359;53.048;8.732;2022-09-02T09:33:14;101982.28;;;19.36;52.81
43745;BME280;29359;53.048;8.732;2022-09-02T09:35:17;101977.28;;;19.48;52.08
43745;BME280;29359;53.048;8.732;2022-09-02T09:37:38;101977.72;;;19.59;51.22
43745;BME280;29359;53.048;8.732;2022-09-02T09:39:40;101972.06;;;19.65;50.74
43745;BME280;29359;53.048;8.732;2022-09-02T09:41:42;101969.59;;;19.60;50.29
43745;BME280;29359;53.048;8.732;2022-09-02T09:43:44;101964.59;;;19.71;51.73
43745;BME280;29359;53.048;8.732;2022-09-02T09:45:47;101969.66;;;19.77;50.19
43745;BME280;29359;53.048;8.732;2022-09-02T09:50:17;101964.75;;;20.04;50.80
43745;BME280;29359;53.048;8.732;2022-09-02T09:52:27;101962.50;;;20.14;49.99
43745;BME280;29359;53.048;8.732;2022-09-02T09:54:29;101969.28;;;20.21;49.41
43745;BME280;29359;53.048;8.732;2022-09-02T09:56:32;101962.72;;;20.27;48.96
43745;BME280;29359;53.048;8.732;2022-09-02T10:00:39;101943.72;;;20.31;48.79
43745;BME280;29359;53.048;8.732;2022-09-02T10:02:49;101951.19;;;20.44;49.69
43745;BME280;29359;53.048;8.732;2022-09-02T10:05:08;101943.44;;;20.55;49.22
43745;BME280;29359;53.048;8.732;2022-09-02T10:07:11;101951.97;;;20.63;48.95
43745;BME280;29359;53.048;8.732;2022-09-02T10:11:21;101953.69;;;20.64;48.44
43745;BME280;29359;53.048;8.732;2022-09-02T10:13:34;101945.16;;;20.73;48.48
43745;BME280;29359;53.048;8.732;2022-09-02T10:22:45;101925.25;;;20.94;47.55
43745;BME280;29359;53.048;8.732;2022-09-02T10:34:31;101907.84;;;21.50;46.58
43745;BME280;29359;53.048;8.732;2022-09-02T10:37:11;101910.00;;;21.75;46.07
43745;BME280;29359;53.048;8.732;2022-09-02T10:42:12;101903.53;;;22.09;45.96
43745;BME280;29359;53.048;8.732;2022-09-02T10:44:27;101903.50;;;22.25;45.33
43745;BME280;29359;53.048;8.732;2022-09-02T10:47:22;101896.53;;;22.51;41.65
43745;BME280;29359;53.048;8.732;2022-09-02T10:49:34;101898.28;;;22.66;44.82
43745;BME280;29359;53.048;8.732;2022-09-02T10:51:56;101897.34;;;22.96;43.71
43745;BME280;29359;53.048;8.732;2022-09-02T10:56:39;101896.50;;;23.65;42.25
43745;BME280;29359;53.048;8.732;2022-09-02T11:00:54;101878.75;;;24.29;41.73
43745;BME280;29359;53.048;8.732;2022-09-02T11:05:02;101891.25;;;24.93;35.78
43745;BME280;29359;53.048;8.732;2022-09-02T11:07:07;101883.81;;;24.84;37.81
43745;BME280;29359;53.048;8.732;2022-09-02T11:09:18;101885.44;;;24.99;41.19
43745;BME280;29359;53.048;8.732;2022-09-02T11:13:59;101878.16;;;25.62;42.78
43745;BME280;29359;53.048;8.732;2022-09-02T11:16:13;101866.00;;;25.91;41.86
43745;BME280;29359;53.048;8.732;2022-09-02T11:18:39;101862.72;;;26.34;39.81
43745;BME280;29359;53.048;8.732;2022-09-02T11:20:53;101861.41;;;26.51;32.60
43745;BME280;29359;53.048;8.732;2022-09-02T11:23:33;101871.75;;;26.46;35.97
43745;BME280;29359;53.048;8.732;2022-09-02T11:25:43;101869.06;;;26.57;38.14
43745;BME280;29359;53.048;8.732;2022-09-02T11:32:09;101862.81;;;26.90;40.42
43745;BME280;29359;53.048;8.732;2022-09-02T11:36:37;101853.66;;;27.36;37.34
43745;BME280;29359;53.048;8.732;2022-09-02T11:38:44;101843.13;;;27.53;34.61
43745;BME280;29359;53.048;8.732;2022-09-02T11:43:47;101847.09;;;27.49;35.34
43745;BME280;29359;53.048;8.732;2022-09-02T11:48:38;101835.66;;;27.23;38.87
43745;BME280;29359;53.048;8.732;2022-09-02T11:53:22;101832.84;;;26.80;30.10